createdAt,value
2022-08-28T00:02:04.251Z,57.35
2022-08-28T00:04:56.557Z,58.28
2022-08-28T00:07:49.390Z,59.09
2022-08-28T00:10:42.686Z,63.50
2022-08-28T00:13:34.845Z,64.42
2022-08-28T00:16:27.649Z,62.33
2022-08-28T00:19:20.772Z,60.91
2022-08-28T00:22:12.837Z,57.84
2022-08-28T00:25:09.392Z,56.66
2022-08-28T00:28:10.376Z,57.17
2022-08-28T00:31:02.882Z,57.86
2022-08-28T00:33:54.935Z,59.04
2022-08-28T00:36:46.901Z,59.91
2022-08-28T00:39:31.216Z,64.18
2022-08-28T00:42:17.265Z,65.76
2022-08-28T00:45:13.265Z,63.70
2022-08-28T00:48:05.931Z,61.41
2022-08-28T00:51:01.678Z,57.63
2022-08-28T00:53:58.770Z,55.79
2022-08-28T00:56:52.125Z,56.05
2022-08-28T00:59:45.216Z,55.51
2022-08-28T01:02:40.246Z,57.97
2022-08-28T01:05:27.438Z,59.39
2022-08-28T01:08:13.801Z,62.91
2022-08-28T01:11:01.187Z,65.18
2022-08-28T01:13:56.954Z,63.26
2022-08-28T01:16:56.336Z,61.18
2022-08-28T01:19:57.257Z,57.26
2022-08-28T01:22:57.470Z,56.06
2022-08-28T01:25:49.681Z,56.78
2022-08-28T01:28:42.402Z,58.11
2022-08-28T01:31:29.094Z,59.53
2022-08-28T01:34:23.662Z,63.67
2022-08-28T01:37:15.725Z,65.14
2022-08-28T01:40:10.510Z,63.77
2022-08-28T01:43:11.962Z,61.94
2022-08-28T01:46:06.362Z,60.72
2022-08-28T01:48:51.590Z,57.98
2022-08-28T01:51:44.847Z,56.97
2022-08-28T01:54:37.050Z,58.01
2022-08-28T01:57:31.161Z,59.35
2022-08-28T02:00:27.022Z,63.12
2022-08-28T02:03:19.059Z,64.76
2022-08-28T02:06:12.391Z,63.80
2022-08-28T02:09:05.330Z,62.51
2022-08-28T02:11:57.536Z,61.24
2022-08-28T02:14:49.654Z,58.41
2022-08-28T02:17:42.051Z,57.32
2022-08-28T02:20:35.063Z,57.96
2022-08-28T02:23:27.206Z,58.97
2022-08-28T02:26:20.994Z,63.21
2022-08-28T02:29:13.404Z,65.55
2022-08-28T02:32:06.337Z,63.55
2022-08-28T02:34:58.621Z,61.56
2022-08-28T02:37:50.896Z,58.00
2022-08-28T02:40:47.188Z,56.56
2022-08-28T02:43:39.369Z,57.38
2022-08-28T02:46:33.065Z,58.55
2022-08-28T02:49:25.145Z,59.49
2022-08-28T02:52:24.821Z,64.44
2022-08-28T02:55:19.632Z,65.20
2022-08-28T02:58:06.857Z,62.37
2022-08-28T03:00:52.006Z,58.58
2022-08-28T03:03:44.561Z,56.66
2022-08-28T03:06:36.665Z,57.27
2022-08-28T03:09:28.888Z,58.13
2022-08-28T03:12:24.136Z,59.22
2022-08-28T03:15:17.251Z,64.03
2022-08-28T03:18:11.286Z,65.51
2022-08-28T03:20:53.557Z,63.23
2022-08-28T03:23:45.622Z,61.49
2022-08-28T03:26:20.368Z,58.27
2022-08-28T03:28:55.371Z,56.92
2022-08-28T03:31:48.773Z,57.59
2022-08-28T03:34:41.194Z,59.02
2022-08-28T03:37:33.222Z,63.99
2022-08-28T03:40:25.580Z,64.88
2022-08-28T03:43:20.691Z,63.77
2022-08-28T03:46:04.826Z,62.61
2022-08-28T03:48:57.485Z,61.29
2022-08-28T03:51:49.557Z,60.67
2022-08-28T03:54:41.726Z,58.26
2022-08-28T03:57:26.923Z,57.26
2022-08-28T04:00:20.846Z,57.81
2022-08-28T04:03:13.713Z,58.96
2022-08-28T04:06:06.237Z,63.60
2022-08-28T04:08:51.927Z,64.64
2022-08-28T04:11:44.926Z,63.01
2022-08-28T04:14:37.551Z,61.59
2022-08-28T04:17:30.482Z,61.86
2022-08-28T04:20:22.711Z,60.38
2022-08-28T04:23:14.701Z,58.03
2022-08-28T04:26:09.054Z,57.38
2022-08-28T04:29:01.061Z,58.33
2022-08-28T04:31:53.143Z,59.80
2022-08-28T04:34:45.364Z,64.58
2022-08-28T04:37:37.641Z,66.38
2022-08-28T04:40:29.826Z,64.37
2022-08-28T04:43:22.396Z,62.41
2022-08-28T04:46:16.478Z,61.40
2022-08-28T04:49:08.914Z,60.15
2022-08-28T04:52:00.920Z,57.52
2022-08-28T04:54:52.979Z,57.01
2022-08-28T04:57:46.331Z,57.86
2022-08-28T05:00:39.335Z,59.10
2022-08-28T05:03:33.632Z,62.64
2022-08-28T05:06:28.095Z,64.20
2022-08-28T05:09:21.673Z,62.63
2022-08-28T05:12:17.462Z,61.35
2022-08-28T05:15:11.670Z,58.18
2022-08-28T05:17:53.603Z,56.82
2022-08-28T05:20:47.841Z,57.14
2022-08-28T05:23:39.792Z,58.08
2022-08-28T05:26:31.863Z,59.10
2022-08-28T05:29:17.817Z,59.70
2022-08-28T05:32:09.937Z,63.54
2022-08-28T05:35:01.937Z,64.30
2022-08-28T05:37:55.351Z,62.67
2022-08-28T05:40:47.934Z,60.83
2022-08-28T05:43:39.879Z,57.68
2022-08-28T05:46:32.595Z,56.63
2022-08-28T05:49:24.898Z,56.90
2022-08-28T05:52:16.977Z,57.87
2022-08-28T05:55:11.176Z,58.70
2022-08-28T05:58:23.150Z,59.19
2022-08-28T06:01:18.582Z,59.35
2022-08-28T06:04:14.589Z,59.73
2022-08-28T06:07:07.089Z,59.87
2022-08-28T06:09:59.081Z,60.41
2022-08-28T06:12:51.063Z,60.85
2022-08-28T06:15:45.832Z,60.91
2022-08-28T06:18:38.108Z,65.62
2022-08-28T06:21:30.726Z,64.35
2022-08-28T06:24:22.264Z,62.30
2022-08-28T06:27:14.246Z,58.73
2022-08-28T06:30:08.063Z,55.94
2022-08-28T06:32:59.148Z,56.30
2022-08-28T06:35:31.345Z,57.06
2022-08-28T06:38:13.598Z,57.48
2022-08-28T06:41:10.247Z,57.92
2022-08-28T06:44:02.620Z,58.52
2022-08-28T06:46:56.277Z,59.10
2022-08-28T06:49:48.278Z,59.50
2022-08-28T06:52:33.193Z,59.68
2022-08-28T06:55:26.508Z,60.21
2022-08-28T06:58:18.753Z,60.57
2022-08-28T07:01:14.358Z,60.43
2022-08-28T07:04:09.125Z,60.72
2022-08-28T07:06:54.748Z,61.11
2022-08-28T07:09:47.417Z,60.97
2022-08-28T07:12:40.238Z,61.11
2022-08-28T07:15:31.200Z,60.83
2022-08-28T07:18:23.500Z,60.65
2022-08-28T07:21:12.346Z,60.65
2022-08-28T07:24:05.410Z,60.96
2022-08-28T07:26:57.969Z,60.72
2022-08-28T07:29:50.998Z,60.04
2022-08-28T07:32:43.582Z,59.22
2022-08-28T07:35:35.589Z,59.07
2022-08-28T07:38:27.903Z,58.43
2022-08-28T07:41:22.342Z,58.42
2022-08-28T07:44:33.577Z,58.58
2022-08-28T07:47:26.021Z,58.69
2022-08-28T07:50:18.120Z,58.57
2022-08-28T07:53:10.103Z,58.82
2022-08-28T07:56:02.904Z,59.12
2022-08-28T07:58:48.052Z,58.97
2022-08-28T08:01:42.002Z,59.00
2022-08-28T08:04:34.074Z,59.15
2022-08-28T08:07:26.048Z,58.83
2022-08-28T08:10:19.918Z,58.97
2022-08-28T08:13:12.749Z,59.08
2022-08-28T08:16:07.429Z,59.34
2022-08-28T08:19:00.527Z,59.23
2022-08-28T08:21:54.697Z,58.66
2022-08-28T08:24:47.422Z,58.99
2022-08-28T08:27:42.938Z,59.05
2022-08-28T08:30:35.191Z,58.80
2022-08-28T08:33:28.242Z,58.05
2022-08-28T08:36:22.524Z,57.64
2022-08-28T08:39:14.527Z,57.61
2022-08-28T08:42:19.616Z,57.11
2022-08-28T08:45:15.230Z,57.53
2022-08-28T08:48:11.507Z,57.40
2022-08-28T08:50:54.158Z,55.31
2022-08-28T08:53:54.212Z,55.29
2022-08-28T08:56:40.056Z,54.89
2022-08-28T08:59:36.892Z,54.82
2022-08-28T09:02:35.383Z,55.26
2022-08-28T09:05:23.472Z,54.87
2022-08-28T09:08:25.325Z,55.40
2022-08-28T09:11:31.740Z,55.27
2022-08-28T09:14:33.894Z,55.19
2022-08-28T09:17:32.640Z,54.19
2022-08-28T09:20:33.154Z,53.47
2022-08-28T09:23:15.403Z,52.70
2022-08-28T09:26:12.894Z,51.97
2022-08-28T09:29:04.844Z,51.54
2022-08-28T09:31:57.096Z,50.63
2022-08-28T09:35:09.481Z,49.94
2022-08-28T09:38:20.174Z,49.03
2022-08-28T09:41:36.805Z,49.48
2022-08-28T09:44:27.376Z,49.05
2022-08-28T09:47:46.503Z,49.55
2022-08-28T09:50:42.458Z,49.22
2022-08-28T09:53:37.839Z,48.86
2022-08-28T09:56:33.570Z,49.05
2022-08-28T09:59:28.810Z,48.08
2022-08-28T10:02:32.918Z,46.99
2022-08-28T10:05:38.648Z,46.66
2022-08-28T10:08:44.900Z,45.50
2022-08-28T10:11:45.837Z,45.24
2022-08-28T10:14:53.923Z,43.30
2022-08-28T10:17:36.207Z,43.40
2022-08-28T10:20:25.656Z,44.16
2022-08-28T10:23:27.630Z,44.53
2022-08-28T10:26:35.297Z,43.90
2022-08-28T10:29:40.273Z,43.97
2022-08-28T10:32:55.686Z,43.75
2022-08-28T10:35:57.276Z,43.41
2022-08-28T10:38:54.833Z,43.31
2022-08-28T10:41:51.956Z,42.85
2022-08-28T10:44:53.459Z,43.08
2022-08-28T10:47:29.544Z,39.59
2022-08-28T10:50:24.665Z,40.66
2022-08-28T10:53:15.071Z,41.76
2022-08-28T10:56:14.502Z,40.69
2022-08-28T10:58:59.992Z,41.58
2022-08-28T11:01:53.343Z,41.59
2022-08-28T11:04:47.502Z,41.74
2022-08-28T11:07:30.115Z,41.61
2022-08-28T11:10:41.791Z,41.29
2022-08-28T11:13:48.699Z,42.27
2022-08-28T11:16:46.106Z,41.36
2022-08-28T11:20:13.625Z,41.49
2022-08-28T11:23:16.073Z,41.74
2022-08-28T11:26:07.767Z,41.21
2022-08-28T11:28:59.796Z,41.17
2022-08-28T11:32:25.252Z,40.56
2022-08-28T11:35:45.485Z,40.77
2022-08-28T11:39:14.069Z,40.78
2022-08-28T11:42:38.918Z,39.98
2022-08-28T11:46:11.958Z,40.27
2022-08-28T11:48:52.143Z,39.97
2022-08-28T11:52:04.902Z,39.61
2022-08-28T11:55:07.041Z,39.48
2022-08-28T12:01:08.299Z,39.71
2022-08-28T12:04:01.927Z,39.17
2022-08-28T12:07:24.080Z,39.14
2022-08-28T12:10:46.642Z,38.68
2022-08-28T12:13:52.167Z,38.81
2022-08-28T12:20:17.343Z,39.56
2022-08-28T12:23:42.918Z,39.64
2022-08-28T12:26:38.752Z,38.78
2022-08-28T12:29:39.917Z,38.03
2022-08-28T12:32:35.817Z,37.41
2022-08-28T12:35:31.149Z,34.81
2022-08-28T12:38:24.705Z,36.80
2022-08-28T12:41:21.008Z,37.40
2022-08-28T12:44:15.704Z,37.37
2022-08-28T12:47:02.731Z,37.06
2022-08-28T12:49:54.961Z,37.34
2022-08-28T12:52:52.794Z,37.08
2022-08-28T12:55:44.701Z,37.51
2022-08-28T12:58:40.949Z,37.28
2022-08-28T13:01:35.602Z,37.49
2022-08-28T13:04:32.979Z,37.18
2022-08-28T13:07:30.643Z,37.30
2022-08-28T13:10:26.048Z,37.01
2022-08-28T13:13:25.157Z,36.92
2022-08-28T13:16:38.216Z,37.01
2022-08-28T13:19:31.939Z,37.19
2022-08-28T13:22:40.580Z,37.06
2022-08-28T13:25:35.564Z,37.39
2022-08-28T13:28:28.381Z,37.45
2022-08-28T13:31:30.244Z,37.51
2022-08-28T13:34:27.085Z,37.27
2022-08-28T13:37:55.268Z,37.34
2022-08-28T13:40:59.792Z,37.27
2022-08-28T13:43:52.360Z,36.92
2022-08-28T13:46:44.472Z,36.86
2022-08-28T13:49:36.838Z,37.23
2022-08-28T13:52:29.122Z,37.24
2022-08-28T13:55:22.027Z,36.62
2022-08-28T13:58:16.123Z,36.56
2022-08-28T14:01:11.442Z,36.52
2022-08-28T14:04:03.936Z,36.36
2022-08-28T14:06:56.022Z,36.58
2022-08-28T14:09:50.922Z,35.78
2022-08-28T14:12:47.824Z,35.80
2022-08-28T14:15:40.050Z,35.45
2022-08-28T14:18:32.288Z,35.40
2022-08-28T14:21:25.343Z,35.79
2022-08-28T14:24:18.083Z,35.83
2022-08-28T14:26:55.616Z,35.66
2022-08-28T14:29:49.155Z,35.63
2022-08-28T14:32:31.661Z,35.51
2022-08-28T14:35:23.840Z,35.78
2022-08-28T14:38:16.347Z,35.97
2022-08-28T14:41:12.469Z,35.98
2022-08-28T14:44:05.980Z,36.34
2022-08-28T14:46:58.316Z,36.04
2022-08-28T14:49:50.555Z,36.29
2022-08-28T14:52:44.002Z,36.12
2022-08-28T14:55:42.047Z,36.30
2022-08-28T14:58:25.186Z,36.50
2022-08-28T15:01:26.564Z,36.67
2022-08-28T15:04:37.776Z,37.04
2022-08-28T15:07:31.987Z,37.46
2022-08-28T15:10:17.365Z,37.95
2022-08-28T15:13:10.553Z,38.22
2022-08-28T15:16:15.501Z,38.37
2022-08-28T15:19:12.429Z,38.63
2022-08-28T15:22:05.357Z,38.68
2022-08-28T15:24:57.530Z,39.17
2022-08-28T15:27:49.761Z,39.42
2022-08-28T15:30:42.296Z,39.72
2022-08-28T15:33:34.436Z,40.11
2022-08-28T15:36:26.644Z,40.06
2022-08-28T15:39:37.722Z,40.10
2022-08-28T15:42:30.084Z,40.08
2022-08-28T15:45:22.982Z,40.30
2022-08-28T15:48:15.796Z,40.46
2022-08-28T15:51:08.241Z,40.43
2022-08-28T15:54:03.242Z,40.26
2022-08-28T15:56:55.918Z,40.48
2022-08-28T15:59:49.365Z,41.07
2022-08-28T16:02:42.819Z,41.55
2022-08-28T16:05:40.597Z,41.83
2022-08-28T16:08:33.302Z,42.21
2022-08-28T16:11:26.524Z,42.65
2022-08-28T16:14:21.068Z,42.92
2022-08-28T16:17:13.914Z,43.38
2022-08-28T16:20:12.883Z,43.88
2022-08-28T16:22:58.005Z,44.25
2022-08-28T16:25:50.339Z,44.61
2022-08-28T16:28:44.799Z,44.78
2022-08-28T16:31:37.173Z,45.39
2022-08-28T16:34:32.773Z,46.12
2022-08-28T16:37:20.822Z,46.71
2022-08-28T16:40:15.070Z,47.03
2022-08-28T16:43:07.929Z,47.76
2022-08-28T16:46:00.368Z,48.50
2022-08-28T16:48:54.788Z,48.99
2022-08-28T16:51:47.254Z,49.22
2022-08-28T16:54:39.540Z,49.63
2022-08-28T16:57:41.611Z,49.62
2022-08-28T17:00:34.091Z,50.18
2022-08-28T17:03:37.057Z,50.41
2022-08-28T17:06:33.368Z,50.83
2022-08-28T17:09:25.627Z,51.42
2022-08-28T17:12:20.401Z,52.14
2022-08-28T17:15:03.873Z,52.36
2022-08-28T17:17:56.991Z,52.85
2022-08-28T17:21:06.328Z,53.21
2022-08-28T17:24:00.155Z,53.32
2022-08-28T17:26:52.439Z,53.94
2022-08-28T17:29:44.925Z,54.43
2022-08-28T17:32:37.756Z,54.66
2022-08-28T17:35:30.018Z,54.78
2022-08-28T17:38:22.339Z,55.58
2022-08-28T17:41:14.700Z,55.81
2022-08-28T17:44:07.500Z,56.22
2022-08-28T17:46:59.703Z,56.77
2022-08-28T17:49:51.975Z,57.39
2022-08-28T17:52:44.225Z,57.31
2022-08-28T17:55:36.496Z,57.88
2022-08-28T17:58:28.632Z,59.00
2022-08-28T18:01:24.847Z,59.18
2022-08-28T18:04:23.961Z,59.25
2022-08-28T18:07:17.278Z,59.51
2022-08-28T18:10:11.895Z,59.78
2022-08-28T18:13:05.995Z,60.07
2022-08-28T18:15:58.509Z,60.10
2022-08-28T18:18:43.771Z,60.45
2022-08-28T18:21:36.380Z,64.28
2022-08-28T18:24:28.580Z,65.59
2022-08-28T18:27:26.624Z,63.92
2022-08-28T18:30:18.666Z,59.45
2022-08-28T18:33:27.075Z,56.62
2022-08-28T18:36:19.259Z,56.78
2022-08-28T18:39:11.427Z,57.31
2022-08-28T18:42:07.892Z,58.21
2022-08-28T18:45:00.214Z,59.05
2022-08-28T18:47:52.871Z,59.06
2022-08-28T18:50:46.607Z,59.38
2022-08-28T18:53:38.882Z,60.03
2022-08-28T18:56:37.138Z,60.28
2022-08-28T18:59:33.242Z,63.23
2022-08-28T19:02:25.534Z,64.13
2022-08-28T19:05:18.159Z,62.90
2022-08-28T19:08:10.641Z,58.59
2022-08-28T19:11:07.643Z,56.47
2022-08-28T19:14:04.044Z,56.43
2022-08-28T19:16:56.996Z,56.91
2022-08-28T19:19:52.621Z,57.73
2022-08-28T19:22:44.728Z,58.33
2022-08-28T19:25:37.703Z,59.13
2022-08-28T19:28:31.106Z,59.99
2022-08-28T19:31:24.260Z,60.44
2022-08-28T19:34:18.228Z,64.13
2022-08-28T19:37:10.479Z,64.53
2022-08-28T19:39:56.703Z,61.82
2022-08-28T19:42:50.196Z,60.44
2022-08-28T19:45:45.991Z,56.99
2022-08-28T19:48:39.150Z,55.96
2022-08-28T19:51:22.549Z,57.12
2022-08-28T19:54:16.175Z,58.12
2022-08-28T19:57:09.843Z,59.54
2022-08-28T20:00:02.577Z,62.69
2022-08-28T20:02:37.181Z,63.65
2022-08-28T20:05:29.604Z,62.33
2022-08-28T20:08:24.035Z,61.06
2022-08-28T20:11:24.802Z,59.64
2022-08-28T20:14:18.810Z,56.97
2022-08-28T20:17:11.145Z,57.79
2022-08-28T20:20:03.846Z,58.88
2022-08-28T20:22:58.554Z,63.18
2022-08-28T20:29:24.478Z,63.22
2022-08-28T20:32:17.901Z,60.99
2022-08-28T20:35:13.407Z,60.47
2022-08-28T20:38:05.860Z,58.91
2022-08-28T20:40:38.462Z,58.07
2022-08-28T20:43:30.916Z,58.38
2022-08-28T20:46:23.457Z,60.01
2022-08-28T20:49:17.248Z,64.17
2022-08-28T20:52:09.836Z,64.81
2022-08-28T20:55:02.029Z,63.71
2022-08-28T20:57:54.328Z,62.71
2022-08-28T21:00:47.476Z,63.09
2022-08-28T21:03:41.056Z,62.73
2022-08-28T21:06:33.294Z,62.00
2022-08-28T21:09:43.962Z,62.35
2022-08-28T21:12:38.927Z,61.81
2022-08-28T21:15:31.623Z,61.92
2022-08-28T21:18:23.854Z,61.52
2022-08-28T21:21:16.724Z,61.38
2022-08-28T21:24:15.489Z,60.91
2022-08-28T21:27:09.552Z,60.59
2022-08-28T21:29:44.686Z,60.30
2022-08-28T21:32:38.154Z,60.43
2022-08-28T21:35:30.320Z,60.23
2022-08-28T21:38:22.635Z,60.03
2022-08-28T21:41:16.606Z,60.10
2022-08-28T21:44:09.556Z,60.11
2022-08-28T21:47:03.082Z,59.90
2022-08-28T21:49:57.410Z,59.77
2022-08-28T21:52:49.759Z,60.00
2022-08-28T21:55:49.462Z,59.84
2022-08-28T21:58:41.643Z,60.02
2022-08-28T22:01:35.781Z,59.95
2022-08-28T22:04:27.961Z,59.55
2022-08-28T22:07:20.905Z,58.02
2022-08-28T22:10:14.160Z,58.16
2022-08-28T22:13:06.876Z,59.72
2022-08-28T22:15:59.520Z,63.85
2022-08-28T22:18:52.242Z,65.85
2022-08-28T22:22:01.857Z,64.68
2022-08-28T22:24:56.686Z,63.88
2022-08-28T22:27:48.951Z,63.27
2022-08-28T22:30:41.226Z,62.64
2022-08-28T22:33:28.828Z,62.05
2022-08-28T22:36:21.081Z,61.91
2022-08-28T22:39:13.594Z,61.69
2022-08-28T22:42:05.867Z,60.90
2022-08-28T22:45:00.219Z,60.47
2022-08-28T22:47:54.206Z,60.16
2022-08-28T22:50:40.084Z,58.25
2022-08-28T22:53:32.221Z,57.70
2022-08-28T22:56:24.909Z,59.12
2022-08-28T22:59:17.117Z,63.63
2022-08-28T23:02:09.416Z,65.02
2022-08-28T23:05:01.708Z,63.26
2022-08-28T23:07:54.020Z,62.51
2022-08-28T23:10:59.107Z,61.75
2022-08-28T23:13:51.907Z,61.27
2022-08-28T23:16:44.262Z,61.06
2022-08-28T23:19:36.702Z,60.46
2022-08-28T23:22:29.038Z,59.92
2022-08-28T23:25:24.800Z,58.06
2022-08-28T23:28:17.074Z,57.82
2022-08-28T23:31:10.392Z,59.31
2022-08-28T23:34:02.609Z,64.10
2022-08-28T23:36:58.108Z,65.04
2022-08-28T23:39:50.868Z,63.47
2022-08-28T23:42:44.311Z,62.11
2022-08-28T23:45:39.565Z,61.28
2022-08-28T23:48:32.338Z,61.00
2022-08-28T23:51:24.446Z,60.47
2022-08-28T23:54:17.503Z,59.97
2022-08-28T23:57:11.049Z,57.68
